createdAt,value
2024-05-09T00:00:53.106Z,95816.00
2024-05-09T00:01:53.091Z,95815.00
2024-05-09T00:02:53.123Z,95812.00
2024-05-09T00:03:53.111Z,95812.00
2024-05-09T00:04:53.281Z,95812.00
2024-05-09T00:05:53.097Z,95812.00
2024-05-09T00:06:53.058Z,95814.00
2024-05-09T00:07:53.112Z,95811.00
2024-05-09T00:08:53.097Z,95812.00
2024-05-09T00:09:53.100Z,95810.00
2024-05-09T00:10:53.249Z,95809.00
2024-05-09T00:11:53.266Z,95810.00
2024-05-09T00:12:53.104Z,95811.00
2024-05-09T00:13:53.088Z,95810.00
2024-05-09T00:14:53.105Z,95813.00
2024-05-09T00:15:53.085Z,95811.00
2024-05-09T00:16:53.187Z,95810.00
2024-05-09T00:17:53.419Z,95811.00
2024-05-09T00:18:53.371Z,95811.00
2024-05-09T00:19:53.407Z,95811.00
2024-05-09T00:20:53.450Z,95813.00
2024-05-09T00:21:53.493Z,95813.00
2024-05-09T00:22:53.617Z,95812.00
2024-05-09T00:23:53.649Z,95812.00
2024-05-09T00:24:53.754Z,95815.00
2024-05-09T00:25:53.856Z,95815.00
2024-05-09T00:26:53.931Z,95812.00
2024-05-09T00:27:53.980Z,95812.00
2024-05-09T00:28:54.100Z,95813.00
2024-05-09T00:29:54.130Z,95812.00
2024-05-09T00:30:54.223Z,95809.00
2024-05-09T00:31:54.422Z,95807.00
2024-05-09T00:32:54.670Z,95806.00
2024-05-09T00:33:54.540Z,95804.00
2024-05-09T00:34:54.580Z,95805.00
2024-05-09T00:35:54.623Z,95804.00
2024-05-09T00:36:54.728Z,95804.00
2024-05-09T00:37:54.790Z,95802.00
2024-05-09T00:38:54.887Z,95802.00
2024-05-09T00:39:54.950Z,95802.00
2024-05-09T00:40:55.045Z,95799.00
2024-05-09T00:41:55.105Z,95801.00
2024-05-09T00:42:55.227Z,95799.00
2024-05-09T00:43:55.351Z,95797.00
2024-05-09T00:44:55.380Z,95798.00
2024-05-09T00:45:55.446Z,95796.00
2024-05-09T00:46:55.587Z,95798.00
2024-05-09T00:47:55.752Z,95796.00
2024-05-09T00:48:55.732Z,95796.00
2024-05-09T00:49:55.758Z,95795.00
2024-05-09T00:50:55.885Z,95792.00
2024-05-09T00:51:55.867Z,95791.00
2024-05-09T00:52:55.998Z,95789.00
2024-05-09T00:53:55.976Z,95787.00
2024-05-09T00:54:56.065Z,95785.00
2024-05-09T00:55:56.196Z,95783.00
2024-05-09T00:56:56.190Z,95782.00
2024-05-09T00:57:56.304Z,95781.00
2024-05-09T00:58:56.448Z,95779.00
2024-05-09T00:59:56.455Z,95778.00
2024-05-09T01:00:56.540Z,95774.00
2024-05-09T01:01:56.679Z,95775.00
2024-05-09T01:02:56.845Z,95772.00
2024-05-09T01:03:57.008Z,95771.00
2024-05-09T01:04:57.025Z,95770.00
2024-05-09T01:05:57.027Z,95768.00
2024-05-09T01:06:57.058Z,95770.00
2024-05-09T01:07:57.189Z,95764.00
2024-05-09T01:08:57.208Z,95766.00
2024-05-09T01:09:57.281Z,95766.00
2024-05-09T01:10:57.445Z,95763.00
2024-05-09T01:11:58.334Z,95766.00
2024-05-09T01:12:57.512Z,95766.00
2024-05-09T01:13:57.646Z,95766.00
2024-05-09T01:14:57.664Z,95763.00
2024-05-09T01:15:57.782Z,95764.00
2024-05-09T01:16:57.892Z,95762.00
2024-05-09T01:17:58.237Z,95763.00
2024-05-09T01:18:58.087Z,95765.00
2024-05-09T01:19:58.162Z,95764.00
2024-05-09T01:20:58.245Z,95764.00
2024-05-09T01:21:58.248Z,95767.00
2024-05-09T01:22:58.397Z,95766.00
2024-05-09T01:23:58.408Z,95768.00
2024-05-09T01:24:58.514Z,95768.00
2024-05-09T01:25:58.723Z,95766.00
2024-05-09T01:26:58.663Z,95770.00
2024-05-09T01:27:58.776Z,95770.00
2024-05-09T01:28:58.888Z,95767.00
2024-05-09T01:29:59.033Z,95769.00
2024-05-09T01:30:59.001Z,95771.00
2024-05-09T01:31:59.305Z,95770.00
2024-05-09T01:32:59.453Z,95771.00
2024-05-09T01:33:59.413Z,95772.00
2024-05-09T01:34:59.420Z,95771.00
2024-05-09T01:35:59.460Z,95769.00
2024-05-09T01:36:59.551Z,95772.00
2024-05-09T01:37:59.639Z,95770.00
2024-05-09T01:38:59.750Z,95771.00
2024-05-09T01:39:59.820Z,95771.00
2024-05-09T01:40:59.935Z,95771.00
2024-05-09T01:42:00.007Z,95770.00
2024-05-09T01:43:00.105Z,95771.00
2024-05-09T01:44:00.295Z,95769.00
2024-05-09T01:45:00.290Z,95769.00
2024-05-09T01:46:00.335Z,95769.00
2024-05-09T01:47:00.489Z,95767.00
2024-05-09T01:48:01.145Z,95769.00
2024-05-09T01:49:00.770Z,95768.00
2024-05-09T01:50:00.792Z,95767.00
2024-05-09T01:51:00.881Z,95767.00
2024-05-09T01:52:00.906Z,95769.00
2024-05-09T01:53:01.055Z,95767.00
2024-05-09T01:54:01.045Z,95769.00
2024-05-09T01:55:04.649Z,95769.00
2024-05-09T01:56:02.159Z,95769.00
2024-05-09T01:57:01.107Z,95768.00
2024-05-09T01:58:01.160Z,95770.00
2024-05-09T01:59:01.218Z,95767.00
2024-05-09T02:00:01.191Z,95769.00
2024-05-09T02:01:01.187Z,95768.00
2024-05-09T02:02:01.459Z,95769.00
2024-05-09T02:03:01.567Z,95769.00
2024-05-09T02:04:01.380Z,95770.00
2024-05-09T02:05:01.257Z,95770.00
2024-05-09T02:06:01.354Z,95769.00
2024-05-09T02:07:01.126Z,95767.00
2024-05-09T02:08:01.240Z,95768.00
2024-05-09T02:09:01.126Z,95769.00
2024-05-09T02:10:01.142Z,95768.00
2024-05-09T02:11:01.353Z,95766.00
2024-05-09T02:12:01.396Z,95767.00
2024-05-09T02:13:01.290Z,95766.00
2024-05-09T02:14:01.357Z,95765.00
2024-05-09T02:15:01.284Z,95766.00
2024-05-09T02:16:01.376Z,95765.00
2024-05-09T02:17:01.560Z,95763.00
2024-05-09T02:18:01.641Z,95765.00
2024-05-09T02:19:01.772Z,95762.00
2024-05-09T02:20:01.793Z,95765.00
2024-05-09T02:21:01.908Z,95765.00
2024-05-09T02:22:01.859Z,95766.00
2024-05-09T02:23:01.980Z,95768.00
2024-05-09T02:24:02.040Z,95766.00
2024-05-09T02:25:02.184Z,95766.00
2024-05-09T02:26:02.267Z,95764.00
2024-05-09T02:27:02.323Z,95764.00
2024-05-09T02:28:02.474Z,95763.00
2024-05-09T02:29:02.454Z,95758.00
2024-05-09T02:30:02.837Z,95760.00
2024-05-09T02:31:02.628Z,95764.00
2024-05-09T02:32:02.773Z,95762.00
2024-05-09T02:33:02.984Z,95761.00
2024-05-09T02:34:03.124Z,95759.00
2024-05-09T02:35:03.128Z,95757.00
2024-05-09T02:36:03.096Z,95755.00
2024-05-09T02:37:03.144Z,95757.00
2024-05-09T02:38:03.376Z,95757.00
2024-05-09T02:39:03.302Z,95756.00
2024-05-09T02:40:04.405Z,95757.00
2024-05-09T02:41:03.470Z,95756.00
2024-05-09T02:42:03.477Z,95757.00
2024-05-09T02:43:03.491Z,95756.00
2024-05-09T02:44:03.571Z,95755.00
2024-05-09T02:45:03.550Z,95754.00
2024-05-09T02:46:03.619Z,95756.00
2024-05-09T02:47:03.738Z,95756.00
2024-05-09T02:48:04.175Z,95755.00
2024-05-09T02:49:03.918Z,95754.00
2024-05-09T02:50:05.990Z,95754.00
2024-05-09T02:51:04.004Z,95758.00
2024-05-09T02:52:03.923Z,95755.00
2024-05-09T02:53:04.228Z,95757.00
2024-05-09T02:54:04.051Z,95757.00
2024-05-09T02:55:04.162Z,95757.00
2024-05-09T02:56:04.330Z,95758.00
2024-05-09T02:57:04.331Z,95757.00
2024-05-09T02:58:04.407Z,95758.00
2024-05-09T02:59:04.561Z,95758.00
2024-05-09T03:00:06.133Z,95756.00
2024-05-09T03:01:04.647Z,95757.00
2024-05-09T03:02:04.675Z,95756.00
2024-05-09T03:03:04.738Z,95756.00
2024-05-09T03:04:04.772Z,95755.00
2024-05-09T03:05:04.684Z,95753.00
2024-05-09T03:06:04.647Z,95755.00
2024-05-09T03:07:04.645Z,95753.00
2024-05-09T03:08:04.901Z,95754.00
2024-05-09T03:09:04.636Z,95754.00
2024-05-09T03:10:07.472Z,95752.00
2024-05-09T03:11:05.778Z,95752.00
2024-05-09T03:12:04.726Z,95750.00
2024-05-09T03:13:04.664Z,95750.00
2024-05-09T03:14:04.672Z,95750.00
2024-05-09T03:15:04.672Z,95752.00
2024-05-09T03:16:04.676Z,95751.00
2024-05-09T03:17:04.725Z,95752.00
2024-05-09T03:18:04.963Z,95752.00
2024-05-09T03:19:04.939Z,95753.00
2024-05-09T03:20:06.986Z,95754.00
2024-05-09T03:21:05.794Z,95757.00
2024-05-09T03:22:04.702Z,95756.00
2024-05-09T03:23:05.404Z,95755.00
2024-05-09T03:24:04.670Z,95757.00
2024-05-09T03:25:04.673Z,95757.00
2024-05-09T03:26:04.764Z,95757.00
2024-05-09T03:27:04.695Z,95758.00
2024-05-09T03:28:04.686Z,95760.00
2024-05-09T03:29:04.902Z,95760.00
2024-05-09T03:30:07.323Z,95757.00
2024-05-09T03:31:04.710Z,95758.00
2024-05-09T03:32:04.829Z,95758.00
2024-05-09T03:34:06.152Z,95758.00
2024-05-09T03:35:06.022Z,95756.00
2024-05-09T03:36:09.062Z,95755.00
2024-05-09T03:37:05.985Z,95755.00
2024-05-09T03:38:05.991Z,95757.00
2024-05-09T03:39:05.958Z,95757.00
2024-05-09T03:40:09.332Z,95760.00
2024-05-09T03:41:06.990Z,95759.00
2024-05-09T03:42:05.971Z,95759.00
2024-05-09T03:43:05.964Z,95760.00
2024-05-09T03:44:05.970Z,95759.00
2024-05-09T03:45:05.988Z,95758.00
2024-05-09T03:46:05.977Z,95757.00
2024-05-09T03:47:06.056Z,95757.00
2024-05-09T03:48:06.028Z,95757.00
2024-05-09T03:49:06.107Z,95756.00
2024-05-09T03:50:11.974Z,95757.00
2024-05-09T03:51:07.150Z,95760.00
2024-05-09T03:52:06.035Z,95761.00
2024-05-09T03:53:06.103Z,95760.00
2024-05-09T03:54:06.013Z,95765.00
2024-05-09T03:55:05.996Z,95764.00
2024-05-09T03:56:06.099Z,95767.00
2024-05-09T03:57:06.067Z,95768.00
2024-05-09T03:58:06.034Z,95770.00
2024-05-09T03:59:06.042Z,95772.00
2024-05-09T04:00:12.223Z,95773.00
2024-05-09T04:01:07.066Z,95773.00
2024-05-09T04:02:06.163Z,95772.00
2024-05-09T04:03:07.815Z,95772.00
2024-05-09T04:04:06.061Z,95773.00
2024-05-09T04:05:06.083Z,95774.00
2024-05-09T04:06:06.041Z,95776.00
2024-05-09T04:07:06.146Z,95778.00
2024-05-09T04:08:06.126Z,95779.00
2024-05-09T04:09:06.073Z,95779.00
2024-05-09T04:10:08.898Z,95779.00
2024-05-09T04:11:06.131Z,95780.00
2024-05-09T04:12:06.118Z,95781.00
2024-05-09T04:13:06.052Z,95781.00
2024-05-09T04:14:06.105Z,95780.00
2024-05-09T04:15:08.139Z,95784.00
2024-05-09T04:16:06.093Z,95781.00
2024-05-09T04:17:06.114Z,95781.00
2024-05-09T04:18:06.326Z,95780.00
2024-05-09T04:19:06.121Z,95783.00
2024-05-09T04:20:08.356Z,95780.00
2024-05-09T04:21:06.297Z,95780.00
2024-05-09T04:22:06.168Z,95782.00
2024-05-09T04:23:06.678Z,95782.00
2024-05-09T04:24:06.247Z,95782.00
2024-05-09T04:25:06.282Z,95781.00
2024-05-09T04:26:06.337Z,95783.00
2024-05-09T04:27:06.340Z,95783.00
2024-05-09T04:28:06.389Z,95785.00
2024-05-09T04:29:06.498Z,95785.00
2024-05-09T04:30:10.048Z,95786.00
2024-05-09T04:31:07.492Z,95788.00
2024-05-09T04:32:15.352Z,95786.00
2024-05-09T04:33:15.757Z,95788.00
2024-05-09T04:34:15.337Z,95790.00
2024-05-09T04:35:15.296Z,95789.00
2024-05-09T04:36:15.296Z,95788.00
2024-05-09T04:37:15.299Z,95789.00
2024-05-09T04:38:15.852Z,95789.00
2024-05-09T04:39:15.324Z,95786.00
2024-05-09T04:40:24.233Z,95788.00
2024-05-09T04:41:16.378Z,95788.00
2024-05-09T04:42:15.340Z,95789.00
2024-05-09T04:43:15.360Z,95788.00
2024-05-09T04:44:15.373Z,95788.00
2024-05-09T04:45:15.339Z,95790.00
2024-05-09T04:46:15.363Z,95791.00
2024-05-09T04:47:15.440Z,95789.00
2024-05-09T04:48:15.478Z,95790.00
2024-05-09T04:49:15.537Z,95791.00
2024-05-09T04:50:25.190Z,95792.00
2024-05-09T04:51:16.419Z,95793.00
2024-05-09T04:52:15.418Z,95794.00
2024-05-09T04:53:15.564Z,95796.00
2024-05-09T04:54:26.127Z,95797.00
2024-05-09T04:55:16.354Z,95797.00
2024-05-09T04:56:15.389Z,95800.00
2024-05-09T04:57:15.380Z,95799.00
2024-05-09T04:58:15.374Z,95800.00
2024-05-09T04:59:15.432Z,95799.00
2024-05-09T05:00:21.949Z,95799.00
2024-05-09T05:02:37.978Z,95801.00
2024-05-09T05:03:16.546Z,95801.00
2024-05-09T05:04:15.513Z,95801.00
2024-05-09T05:05:15.628Z,95802.00
2024-05-09T05:06:15.503Z,95802.00
2024-05-09T05:07:15.435Z,95804.00
2024-05-09T05:08:16.312Z,95802.00
2024-05-09T05:09:15.438Z,95801.00
2024-05-09T05:10:21.679Z,95802.00
2024-05-09T05:11:16.500Z,95800.00
2024-05-09T05:12:15.592Z,95798.00
2024-05-09T05:13:15.473Z,95801.00
2024-05-09T05:14:15.460Z,95800.00
2024-05-09T05:15:15.456Z,95803.00
2024-05-09T05:16:15.442Z,95803.00
2024-05-09T05:17:15.478Z,95803.00
2024-05-09T05:18:15.671Z,95805.00
2024-05-09T05:19:17.659Z,95805.00
2024-05-09T05:20:24.540Z,95805.00
2024-05-09T05:21:16.569Z,95806.00
2024-05-09T05:22:15.457Z,95806.00
2024-05-09T05:23:15.876Z,95807.00
2024-05-09T05:24:15.450Z,95808.00
2024-05-09T05:25:15.463Z,95808.00
2024-05-09T05:26:15.497Z,95806.00
2024-05-09T05:27:15.465Z,95807.00
2024-05-09T05:28:15.512Z,95807.00
2024-05-09T05:29:17.214Z,95806.00
2024-05-09T05:30:21.424Z,95807.00
2024-05-09T05:31:16.508Z,95806.00
2024-05-09T05:32:15.744Z,95808.00
2024-05-09T05:33:15.983Z,95807.00
2024-05-09T05:34:15.528Z,95809.00
2024-05-09T05:35:15.556Z,95809.00
2024-05-09T05:36:15.507Z,95812.00
2024-05-09T05:37:15.503Z,95814.00
2024-05-09T05:38:15.659Z,95813.00
2024-05-09T05:39:15.518Z,95814.00
2024-05-09T05:40:25.256Z,95814.00
2024-05-09T05:41:16.625Z,95812.00
2024-05-09T05:42:15.504Z,95813.00
2024-05-09T05:43:15.600Z,95816.00
2024-05-09T05:44:15.543Z,95815.00
2024-05-09T05:45:15.531Z,95816.00
2024-05-09T05:46:38.056Z,95816.00
2024-05-09T05:47:15.623Z,95814.00
2024-05-09T05:48:16.038Z,95813.00
2024-05-09T05:49:15.639Z,95814.00
2024-05-09T05:50:24.513Z,95814.00
2024-05-09T05:51:16.611Z,95815.00
2024-05-09T05:52:15.546Z,95817.00
2024-05-09T05:53:15.950Z,95816.00
2024-05-09T05:54:15.548Z,95814.00
2024-05-09T05:55:15.546Z,95812.00
2024-05-09T05:56:15.630Z,95815.00
2024-05-09T05:57:15.555Z,95812.00
2024-05-09T05:58:15.551Z,95814.00
2024-05-09T05:59:15.952Z,95814.00
2024-05-09T06:00:25.935Z,95813.00
2024-05-09T06:01:16.616Z,95812.00
2024-05-09T06:02:15.694Z,95812.00
2024-05-09T06:03:15.706Z,95813.00
2024-05-09T06:04:15.634Z,95811.00
2024-05-09T06:05:15.649Z,95810.00
2024-05-09T06:06:15.617Z,95812.00
2024-05-09T06:07:15.612Z,95811.00
2024-05-09T06:08:15.692Z,95810.00
2024-05-09T06:09:15.632Z,95810.00
2024-05-09T06:10:21.422Z,95809.00
2024-05-09T06:11:16.712Z,95809.00
2024-05-09T06:12:15.792Z,95807.00
2024-05-09T06:13:15.831Z,95809.00
2024-05-09T06:14:15.618Z,95805.00
2024-05-09T06:15:15.669Z,95807.00
2024-05-09T06:16:15.615Z,95808.00
2024-05-09T06:17:15.752Z,95810.00
2024-05-09T06:18:15.961Z,95807.00
2024-05-09T06:19:15.839Z,95809.00
2024-05-09T06:20:23.596Z,95807.00
2024-05-09T06:21:16.802Z,95806.00
2024-05-09T06:22:15.649Z,95805.00
2024-05-09T06:23:15.823Z,95806.00
2024-05-09T06:24:15.737Z,95803.00
2024-05-09T06:25:15.752Z,95803.00
2024-05-09T06:26:15.732Z,95803.00
2024-05-09T06:27:15.690Z,95801.00
2024-05-09T06:28:15.713Z,95802.00
2024-05-09T06:29:15.738Z,95802.00
2024-05-09T06:30:25.667Z,95801.00
2024-05-09T06:31:16.717Z,95802.00
2024-05-09T06:32:15.802Z,95802.00
2024-05-09T06:33:16.766Z,95800.00
2024-05-09T06:34:16.057Z,95799.00
2024-05-09T06:35:15.722Z,95800.00
2024-05-09T06:36:15.712Z,95800.00
2024-05-09T06:37:15.719Z,95801.00
2024-05-09T06:38:15.798Z,95798.00
2024-05-09T06:39:15.740Z,95796.00
2024-05-09T06:40:21.361Z,95797.00
2024-05-09T06:41:16.887Z,95795.00
2024-05-09T06:42:15.749Z,95793.00
2024-05-09T06:43:18.072Z,95793.00
2024-05-09T06:44:15.858Z,95792.00
2024-05-09T06:45:15.789Z,95792.00
2024-05-09T06:46:15.781Z,95793.00
2024-05-09T06:47:15.863Z,95795.00
2024-05-09T06:48:15.945Z,95795.00
2024-05-09T06:49:15.961Z,95798.00
2024-05-09T06:50:23.395Z,95796.00
2024-05-09T06:51:16.897Z,95800.00
2024-05-09T06:52:15.768Z,95802.00
2024-05-09T06:53:15.930Z,95801.00
2024-05-09T06:54:15.762Z,95801.00
2024-05-09T06:55:15.781Z,95801.00
2024-05-09T06:56:15.904Z,95802.00
2024-05-09T06:57:15.782Z,95802.00
2024-05-09T06:58:15.813Z,95801.00
2024-05-09T06:59:15.828Z,95798.00
2024-05-09T07:00:23.033Z,95801.00
2024-05-09T07:01:16.811Z,95795.00
2024-05-09T07:02:15.948Z,95797.00
2024-05-09T07:03:17.895Z,95796.00
2024-05-09T07:04:15.958Z,95795.00
2024-05-09T07:05:15.974Z,95798.00
2024-05-09T07:06:15.966Z,95798.00
2024-05-09T07:07:15.849Z,95799.00
2024-05-09T07:08:16.090Z,95801.00
2024-05-09T07:09:15.817Z,95801.00
2024-05-09T07:10:22.098Z,95801.00
2024-05-09T07:11:17.008Z,95802.00
2024-05-09T07:12:15.953Z,95800.00
2024-05-09T07:13:16.170Z,95801.00
2024-05-09T07:14:15.895Z,95798.00
2024-05-09T07:15:15.836Z,95799.00
2024-05-09T07:16:15.983Z,95798.00
2024-05-09T07:17:15.982Z,95796.00
2024-05-09T07:18:17.174Z,95799.00
2024-05-09T07:19:16.193Z,95796.00
2024-05-09T07:20:23.211Z,95795.00
2024-05-09T07:21:17.292Z,95795.00
2024-05-09T07:22:16.163Z,95793.00
2024-05-09T07:23:16.562Z,95792.00
2024-05-09T07:24:16.129Z,95788.00
2024-05-09T07:25:16.180Z,95789.00
2024-05-09T07:26:16.259Z,95787.00
2024-05-09T07:27:16.151Z,95786.00
2024-05-09T07:28:16.219Z,95785.00
2024-05-09T07:29:16.216Z,95788.00
2024-05-09T07:30:22.988Z,95784.00
2024-05-09T07:31:17.208Z,95786.00
2024-05-09T07:32:16.281Z,95784.00
2024-05-09T07:33:16.402Z,95783.00
2024-05-09T07:34:16.224Z,95783.00
2024-05-09T07:35:16.240Z,95783.00
2024-05-09T07:36:16.254Z,95781.00
2024-05-09T07:37:16.186Z,95784.00
2024-05-09T07:38:16.289Z,95785.00
2024-05-09T07:39:16.176Z,95785.00
2024-05-09T07:40:24.903Z,95786.00
2024-05-09T07:41:17.262Z,95786.00
2024-05-09T07:42:16.196Z,95784.00
2024-05-09T07:43:16.630Z,95785.00
2024-05-09T07:44:16.251Z,95781.00
2024-05-09T07:45:38.999Z,95784.00
2024-05-09T07:47:14.201Z,95783.00
2024-05-09T07:48:28.972Z,95781.00
2024-05-09T07:53:29.914Z,95775.00
2024-05-09T07:53:38.007Z,95775.00
2024-05-09T07:54:17.408Z,95775.00
2024-05-09T07:55:16.439Z,95774.00
2024-05-09T07:56:16.665Z,95774.00
2024-05-09T07:57:16.499Z,95774.00
2024-05-09T07:58:16.264Z,95772.00
2024-05-09T07:59:16.272Z,95771.00
2024-05-09T08:00:23.504Z,95772.00
2024-05-09T08:01:17.550Z,95771.00
2024-05-09T08:02:16.380Z,95775.00
2024-05-09T08:03:16.495Z,95773.00
2024-05-09T08:04:16.400Z,95772.00
2024-05-09T08:05:16.464Z,95771.00
2024-05-09T08:06:16.325Z,95771.00
2024-05-09T08:07:16.439Z,95772.00
2024-05-09T08:08:16.343Z,95771.00
2024-05-09T08:09:20.921Z,95769.00
2024-05-09T08:10:22.126Z,95768.00
2024-05-09T08:11:17.352Z,95768.00
2024-05-09T08:12:16.312Z,95765.00
2024-05-09T08:13:16.355Z,95765.00
2024-05-09T08:14:16.319Z,95766.00
2024-05-09T08:15:16.306Z,95764.00
2024-05-09T08:16:16.447Z,95764.00
2024-05-09T08:17:16.480Z,95765.00
2024-05-09T08:18:16.494Z,95765.00
2024-05-09T08:19:16.400Z,95763.00
2024-05-09T08:20:26.479Z,95765.00
2024-05-09T08:21:17.342Z,95761.00
2024-05-09T08:22:16.320Z,95762.00
2024-05-09T08:23:16.327Z,95762.00
2024-05-09T08:24:16.347Z,95761.00
2024-05-09T08:25:16.436Z,95760.00
2024-05-09T08:26:16.418Z,95758.00
2024-05-09T08:27:16.421Z,95757.00
2024-05-09T08:28:16.630Z,95758.00
2024-05-09T08:29:16.413Z,95757.00
2024-05-09T08:30:22.037Z,95756.00
2024-05-09T08:31:17.482Z,95755.00
2024-05-09T08:32:16.410Z,95754.00
2024-05-09T08:33:16.537Z,95752.00
2024-05-09T08:34:16.651Z,95752.00
2024-05-09T08:35:16.414Z,95753.00
2024-05-09T08:36:16.438Z,95753.00
2024-05-09T08:37:22.313Z,95753.00
2024-05-09T08:38:17.401Z,95753.00
2024-05-09T08:39:16.401Z,95755.00
2024-05-09T08:40:23.918Z,95755.00
2024-05-09T08:41:17.426Z,95755.00
2024-05-09T08:42:16.445Z,95758.00
2024-05-09T08:43:16.498Z,95754.00
2024-05-09T08:44:16.448Z,95754.00
2024-05-09T08:45:16.493Z,95756.00
2024-05-09T08:46:16.514Z,95756.00
2024-05-09T08:47:16.485Z,95754.00
2024-05-09T08:48:16.844Z,95751.00
2024-05-09T08:49:16.698Z,95753.00
2024-05-09T08:50:28.601Z,95749.00
2024-05-09T08:51:17.462Z,95749.00
2024-05-09T08:52:16.453Z,95747.00
2024-05-09T08:53:16.460Z,95748.00
2024-05-09T08:54:16.467Z,95749.00
2024-05-09T08:55:16.483Z,95747.00
2024-05-09T08:56:16.454Z,95746.00
2024-05-09T08:57:16.486Z,95747.00
2024-05-09T08:58:16.971Z,95746.00
2024-05-09T08:59:16.476Z,95744.00
2024-05-09T09:00:25.591Z,95742.00
2024-05-09T09:01:17.618Z,95746.00
2024-05-09T09:02:16.618Z,95746.00
2024-05-09T09:03:16.488Z,95744.00
2024-05-09T09:04:16.629Z,95742.00
2024-05-09T09:05:16.642Z,95742.00
2024-05-09T09:06:16.505Z,95741.00
2024-05-09T09:07:16.544Z,95741.00
2024-05-09T09:08:16.496Z,95737.00
2024-05-09T09:09:16.512Z,95737.00
2024-05-09T09:10:25.343Z,95734.00
2024-05-09T09:11:17.499Z,95735.00
2024-05-09T09:12:16.492Z,95735.00
2024-05-09T09:13:16.673Z,95739.00
2024-05-09T09:14:16.524Z,95734.00
2024-05-09T09:15:16.525Z,95737.00
2024-05-09T09:16:16.661Z,95733.00
2024-05-09T09:17:16.577Z,95735.00
2024-05-09T09:18:16.675Z,95730.00
2024-05-09T09:19:16.785Z,95733.00
2024-05-09T09:20:22.975Z,95729.00
2024-05-09T09:21:17.544Z,95729.00
2024-05-09T09:22:16.572Z,95730.00
2024-05-09T09:23:16.540Z,95727.00
2024-05-09T09:24:16.550Z,95728.00
2024-05-09T09:25:16.632Z,95727.00
2024-05-09T09:26:16.541Z,95723.00
2024-05-09T09:27:16.534Z,95722.00
2024-05-09T09:28:16.601Z,95721.00
2024-05-09T09:29:16.578Z,95717.00
2024-05-09T09:30:30.800Z,95717.00
2024-05-09T09:31:17.660Z,95721.00
2024-05-09T09:32:16.665Z,95719.00
2024-05-09T09:33:16.749Z,95718.00
2024-05-09T09:34:16.825Z,95718.00
2024-05-09T09:35:16.672Z,95721.00
2024-05-09T09:36:16.700Z,95717.00
2024-05-09T09:37:16.763Z,95713.00
2024-05-09T09:38:16.741Z,95716.00
2024-05-09T09:39:16.718Z,95713.00
2024-05-09T09:40:18.427Z,95710.00
2024-05-09T09:41:16.696Z,95707.00
2024-05-09T09:42:16.730Z,95708.00
2024-05-09T09:43:16.787Z,95706.00
2024-05-09T09:44:16.751Z,95703.00
2024-05-09T09:45:16.781Z,95703.00
2024-05-09T09:46:16.940Z,95700.00
2024-05-09T09:47:16.883Z,95702.00
2024-05-09T09:48:17.062Z,95704.00
2024-05-09T09:49:17.155Z,95700.00
2024-05-09T09:50:23.585Z,95697.00
2024-05-09T09:51:17.987Z,95694.00
2024-05-09T09:52:17.161Z,95691.00
2024-05-09T09:53:17.048Z,95692.00
2024-05-09T09:54:17.043Z,95694.00
2024-05-09T09:55:17.066Z,95691.00
2024-05-09T09:56:17.021Z,95689.00
2024-05-09T09:57:17.017Z,95691.00
2024-05-09T09:58:17.337Z,95688.00
2024-05-09T09:59:17.038Z,95687.00
2024-05-09T10:00:24.051Z,95688.00
2024-05-09T10:01:18.151Z,95685.00
2024-05-09T10:02:17.183Z,95688.00
2024-05-09T10:03:17.161Z,95686.00
2024-05-09T10:04:17.305Z,95686.00
2024-05-09T10:05:17.177Z,95685.00
2024-05-09T10:06:17.078Z,95681.00
2024-05-09T10:07:17.113Z,95682.00
2024-05-09T10:08:17.080Z,95679.00
2024-05-09T10:09:17.119Z,95678.00
2024-05-09T10:10:26.490Z,95678.00
2024-05-09T10:11:18.270Z,95677.00
2024-05-09T10:12:17.156Z,95671.00
2024-05-09T10:13:17.155Z,95669.00
2024-05-09T10:14:17.144Z,95665.00
2024-05-09T10:15:17.167Z,95660.00
2024-05-09T10:16:17.212Z,95663.00
2024-05-09T10:17:17.189Z,95658.00
2024-05-09T10:18:17.433Z,95656.00
2024-05-09T10:19:17.264Z,95656.00
2024-05-09T10:20:21.948Z,95655.00
2024-05-09T10:21:18.167Z,95656.00
2024-05-09T10:22:17.209Z,95652.00
2024-05-09T10:23:17.158Z,95653.00
2024-05-09T10:24:17.165Z,95654.00
2024-05-09T10:25:17.332Z,95651.00
2024-05-09T10:26:17.180Z,95650.00
2024-05-09T10:27:17.173Z,95652.00
2024-05-09T10:28:17.209Z,95647.00
2024-05-09T10:29:17.219Z,95647.00
2024-05-09T10:30:25.827Z,95646.00
2024-05-09T10:31:18.213Z,95649.00
2024-05-09T10:32:17.274Z,95646.00
2024-05-09T10:33:17.319Z,95647.00
2024-05-09T10:34:17.334Z,95645.00
2024-05-09T10:35:17.245Z,95645.00
2024-05-09T10:36:17.211Z,95643.00
2024-05-09T10:37:17.295Z,95644.00
2024-05-09T10:38:17.225Z,95641.00
2024-05-09T10:39:17.277Z,95640.00
2024-05-09T10:40:23.254Z,95641.00
2024-05-09T10:41:18.351Z,95638.00
2024-05-09T10:42:17.370Z,95635.00
2024-05-09T10:43:17.542Z,95634.00
2024-05-09T10:44:17.363Z,95632.00
2024-05-09T10:45:17.356Z,95632.00
2024-05-09T10:46:17.414Z,95632.00
2024-05-09T10:47:17.386Z,95634.00
2024-05-09T10:48:17.418Z,95634.00
2024-05-09T10:49:17.556Z,95632.00
2024-05-09T10:50:25.247Z,95627.00
2024-05-09T10:51:18.469Z,95628.00
2024-05-09T10:52:17.562Z,95630.00
2024-05-09T10:53:17.432Z,95627.00
2024-05-09T10:54:17.440Z,95624.00
2024-05-09T10:55:17.622Z,95623.00
2024-05-09T10:56:17.672Z,95622.00
2024-05-09T10:57:17.495Z,95623.00
2024-05-09T10:58:17.571Z,95618.00
2024-05-09T10:59:17.447Z,95619.00
2024-05-09T11:00:27.189Z,95617.00
2024-05-09T11:01:18.550Z,95616.00
2024-05-09T11:02:17.619Z,95615.00
2024-05-09T11:03:17.561Z,95611.00
2024-05-09T11:04:17.603Z,95612.00
2024-05-09T11:05:17.670Z,95608.00
2024-05-09T11:06:17.499Z,95607.00
2024-05-09T11:07:17.609Z,95606.00
2024-05-09T11:08:17.472Z,95610.00
2024-05-09T11:09:17.481Z,95607.00
2024-05-09T11:10:24.892Z,95606.00
2024-05-09T11:11:18.537Z,95605.00
2024-05-09T11:12:17.963Z,95601.00
2024-05-09T11:13:17.499Z,95599.00
2024-05-09T11:14:17.501Z,95596.00
2024-05-09T11:15:17.596Z,95593.00
2024-05-09T11:16:17.767Z,95592.00
2024-05-09T11:17:17.605Z,95594.00
2024-05-09T11:18:18.439Z,95597.00
2024-05-09T11:19:17.629Z,95595.00
2024-05-09T11:20:26.749Z,95592.00
2024-05-09T11:21:18.529Z,95595.00
2024-05-09T11:22:17.646Z,95586.00
2024-05-09T11:23:17.613Z,95585.00
2024-05-09T11:24:17.579Z,95585.00
2024-05-09T11:25:17.713Z,95585.00
2024-05-09T11:26:18.140Z,95584.00
2024-05-09T11:27:17.588Z,95583.00
2024-05-09T11:28:17.797Z,95581.00
2024-05-09T11:29:19.608Z,95579.00
2024-05-09T11:30:24.286Z,95578.00
2024-05-09T11:31:19.145Z,95577.00
2024-05-09T11:32:17.677Z,95573.00
2024-05-09T11:33:17.677Z,95580.00
2024-05-09T11:34:17.697Z,95577.00
2024-05-09T11:35:17.786Z,95575.00
2024-05-09T11:36:17.677Z,95577.00
2024-05-09T11:37:17.849Z,95575.00
2024-05-09T11:38:17.632Z,95569.00
2024-05-09T11:39:17.643Z,95578.00
2024-05-09T11:40:25.195Z,95573.00
2024-05-09T11:41:19.016Z,95568.00
2024-05-09T11:42:17.653Z,95569.00
2024-05-09T11:43:17.759Z,95569.00
2024-05-09T11:44:17.728Z,95564.00
2024-05-09T11:45:17.825Z,95572.00
2024-05-09T11:46:17.798Z,95561.00
2024-05-09T11:47:17.718Z,95563.00
2024-05-09T11:48:17.914Z,95562.00
2024-05-09T11:49:17.998Z,95554.00
2024-05-09T11:50:26.821Z,95562.00
2024-05-09T11:51:19.045Z,95561.00